createdAt,value
2023-04-02T00:01:40.841Z,0.55
2023-04-02T00:05:40.968Z,0.54
2023-04-02T00:09:40.902Z,0.54
2023-04-02T00:13:41.400Z,0.55
2023-04-02T00:17:41.061Z,0.53
2023-04-02T00:21:41.093Z,0.54
2023-04-02T00:25:41.192Z,0.54
2023-04-02T00:29:41.439Z,0.55
2023-04-02T00:33:41.313Z,0.53
2023-04-02T00:37:41.375Z,0.54
2023-04-02T00:41:41.427Z,0.54
2023-04-02T00:45:42.059Z,0.55
2023-04-02T00:49:41.556Z,0.56
2023-04-02T00:53:41.582Z,0.54
2023-04-02T00:57:41.645Z,0.52
2023-04-02T01:01:41.744Z,0.54
2023-04-02T01:05:41.762Z,0.54
2023-04-02T01:09:43.439Z,0.54
2023-04-02T01:13:41.861Z,0.53
2023-04-02T01:17:42.614Z,0.53
2023-04-02T01:21:42.501Z,0.54
2023-04-02T01:25:42.033Z,0.53
2023-04-02T01:29:42.108Z,0.52
2023-04-02T01:33:42.192Z,0.54
2023-04-02T01:37:43.445Z,0.53
2023-04-02T01:41:42.309Z,0.53
2023-04-02T01:45:42.462Z,0.53
2023-04-02T01:49:42.414Z,0.54
2023-04-02T01:53:42.522Z,0.52
2023-04-02T01:57:42.552Z,0.53
2023-04-02T02:01:42.657Z,0.53
2023-04-02T02:05:42.688Z,0.53
2023-04-02T02:09:42.963Z,0.52
2023-04-02T02:13:42.837Z,0.54
2023-04-02T02:17:42.985Z,0.52
2023-04-02T02:21:42.995Z,0.54
2023-04-02T02:25:43.974Z,0.53
2023-04-02T02:29:43.146Z,0.52
2023-04-02T02:33:44.445Z,0.53
2023-04-02T02:37:43.234Z,0.52
2023-04-02T02:41:43.491Z,0.54
2023-04-02T02:45:43.391Z,0.53
2023-04-02T02:49:43.435Z,0.53
2023-04-02T02:53:43.971Z,0.53
2023-04-02T02:57:43.566Z,0.53
2023-04-02T03:01:43.723Z,0.53
2023-04-02T03:05:43.717Z,0.52
2023-04-02T03:09:43.780Z,0.52
2023-04-02T03:13:43.864Z,0.53
2023-04-02T03:17:44.013Z,0.53
2023-04-02T03:21:44.037Z,0.54
2023-04-02T03:25:44.465Z,0.52
2023-04-02T03:29:44.157Z,0.52
2023-04-02T03:33:44.500Z,0.53
2023-04-02T03:37:44.343Z,0.53
2023-04-02T03:41:44.479Z,0.52
2023-04-02T03:45:44.963Z,0.53
2023-04-02T03:49:44.624Z,0.53
2023-04-02T03:53:45.013Z,0.51
2023-04-02T03:57:44.787Z,0.54
2023-04-02T04:01:44.898Z,0.52
2023-04-02T04:05:44.935Z,0.53
2023-04-02T04:09:45.039Z,0.51
2023-04-02T04:13:45.524Z,0.52
2023-04-02T04:17:45.495Z,0.53
2023-04-02T04:21:45.506Z,0.53
2023-04-02T04:25:45.383Z,0.53
2023-04-02T04:29:45.576Z,0.52
2023-04-02T04:33:45.586Z,0.53
2023-04-02T04:37:46.036Z,0.52
2023-04-02T04:41:46.024Z,0.52
2023-04-02T04:45:45.855Z,0.53
2023-04-02T04:49:46.015Z,0.52
2023-04-02T04:53:46.007Z,0.54
2023-04-02T04:57:46.516Z,0.53
2023-04-02T05:01:46.226Z,0.52
2023-04-02T05:05:46.345Z,0.53
2023-04-02T05:09:46.407Z,0.53
2023-04-02T05:13:46.528Z,0.52
2023-04-02T05:17:46.680Z,0.52
2023-04-02T05:21:47.023Z,0.52
2023-04-02T05:25:46.816Z,0.52
2023-04-02T05:29:46.905Z,0.53
2023-04-02T05:33:47.524Z,0.53
2023-04-02T05:37:47.126Z,0.53
2023-04-02T05:41:47.242Z,0.52
2023-04-02T05:45:47.533Z,0.53
2023-04-02T05:49:47.477Z,0.53
2023-04-02T05:53:48.048Z,0.53
2023-04-02T05:58:01.199Z,0.53
2023-04-02T06:01:48.692Z,0.52
2023-04-02T06:05:47.631Z,0.52
2023-04-02T06:09:48.034Z,0.52
2023-04-02T06:13:47.540Z,0.54
2023-04-02T06:17:48.105Z,0.53
2023-04-02T06:21:47.774Z,0.53
2023-04-02T06:25:47.909Z,0.53
2023-04-02T06:29:47.997Z,0.54
2023-04-02T06:33:48.103Z,0.53
2023-04-02T06:37:48.249Z,0.54
2023-04-02T06:41:48.334Z,0.54
2023-04-02T06:45:48.641Z,0.53
2023-04-02T06:49:49.064Z,0.54
2023-04-02T06:53:48.724Z,0.54
2023-04-02T06:57:49.083Z,0.53
2023-04-02T07:01:49.109Z,0.52
2023-04-02T07:05:49.091Z,0.54
2023-04-02T07:09:49.148Z,0.52
2023-04-02T07:13:49.570Z,0.52
2023-04-02T07:17:49.431Z,0.52
2023-04-02T07:21:49.575Z,0.52
2023-04-02T07:25:50.061Z,0.53
2023-04-02T07:29:49.782Z,0.53
2023-04-02T07:33:50.081Z,0.53
2023-04-02T07:37:49.950Z,0.52
2023-04-02T07:41:50.065Z,0.53
2023-04-02T07:45:50.138Z,0.53
2023-04-02T07:49:50.286Z,0.52
2023-04-02T07:53:50.617Z,0.52
2023-04-02T07:57:50.428Z,0.52
2023-04-02T08:01:50.548Z,0.51
2023-04-02T08:05:51.072Z,0.52
2023-04-02T08:09:50.724Z,0.50
2023-04-02T08:13:51.121Z,0.51
2023-04-02T08:17:50.945Z,0.51
2023-04-02T08:21:51.067Z,0.53
2023-04-02T08:25:51.072Z,0.51
2023-04-02T08:29:51.093Z,0.52
2023-04-02T08:33:51.610Z,0.52
2023-04-02T08:37:51.311Z,0.53
2023-04-02T08:41:51.588Z,0.53
2023-04-02T08:49:51.530Z,0.53
2023-04-02T08:53:51.597Z,0.54
2023-04-02T08:57:51.651Z,0.52
2023-04-02T09:01:51.790Z,0.54
2023-04-02T09:05:52.093Z,0.53
2023-04-02T09:09:51.905Z,0.52
2023-04-02T09:13:51.944Z,0.52
2023-04-02T09:17:54.333Z,0.53
2023-04-02T09:21:52.102Z,0.53
2023-04-02T09:26:01.331Z,0.52
2023-04-02T09:29:52.977Z,0.52
2023-04-02T09:33:51.902Z,0.52
2023-04-02T09:37:51.913Z,0.53
2023-04-02T09:42:02.770Z,0.53
2023-04-02T09:45:53.136Z,0.52
2023-04-02T09:49:51.804Z,0.53
2023-04-02T09:53:51.815Z,0.52
2023-04-02T09:57:51.860Z,0.53
2023-04-02T10:01:51.925Z,0.53
2023-04-02T10:05:52.137Z,0.52
2023-04-02T10:09:52.055Z,0.52
2023-04-02T10:13:52.127Z,0.52
2023-04-02T10:17:52.711Z,0.51
2023-04-02T10:21:52.699Z,0.52
2023-04-02T10:25:52.609Z,0.50
2023-04-02T10:29:52.398Z,0.51
2023-04-02T10:33:52.472Z,0.51
2023-04-02T10:37:52.503Z,0.52
2023-04-02T10:41:52.622Z,0.52
2023-04-02T10:45:53.162Z,0.51
2023-04-02T10:49:53.638Z,0.51
2023-04-02T10:53:52.810Z,0.50
2023-04-02T10:57:53.191Z,0.51
2023-04-02T11:01:52.989Z,0.52
2023-04-02T11:05:53.137Z,0.52
2023-04-02T11:09:53.103Z,0.51
2023-04-02T11:13:53.640Z,0.52
2023-04-02T11:17:53.269Z,0.53
2023-04-02T11:21:59.625Z,0.52
2023-04-02T11:25:54.623Z,0.51
2023-04-02T11:29:53.283Z,0.51
2023-04-02T11:33:53.671Z,0.51
2023-04-02T11:37:53.391Z,0.52
2023-04-02T11:41:53.698Z,0.51
2023-04-02T11:45:53.705Z,0.51
2023-04-02T11:49:53.614Z,0.53
2023-04-02T11:53:53.704Z,0.51
2023-04-02T11:57:53.807Z,0.53
2023-04-02T12:01:53.899Z,0.52
2023-04-02T12:05:53.969Z,0.52
2023-04-02T12:09:54.060Z,0.53
2023-04-02T12:13:54.115Z,0.51
2023-04-02T12:17:54.703Z,0.50
2023-04-02T12:21:54.309Z,0.53
2023-04-02T12:25:54.693Z,0.53
2023-04-02T12:29:54.482Z,0.51
2023-04-02T12:33:54.553Z,0.54
2023-04-02T12:37:55.157Z,0.52
2023-04-02T12:41:54.770Z,0.55
2023-04-02T12:45:54.914Z,0.54
2023-04-02T12:49:54.988Z,0.55
2023-04-02T12:53:55.214Z,0.54
2023-04-02T12:57:55.158Z,0.53
2023-04-02T13:02:02.778Z,0.53
2023-04-02T13:05:55.253Z,0.54
2023-04-02T13:09:55.704Z,0.52
2023-04-02T13:13:55.203Z,0.54
2023-04-02T13:17:55.217Z,0.54
2023-04-02T13:21:55.118Z,0.54
2023-04-02T13:25:55.148Z,0.53
2023-04-02T13:29:55.708Z,0.53
2023-04-02T13:33:55.383Z,0.55
2023-04-02T13:37:55.819Z,0.53
2023-04-02T13:41:55.603Z,0.54
2023-04-02T13:45:55.734Z,0.53
2023-04-02T13:49:56.192Z,0.54
2023-04-02T13:53:56.209Z,0.52
2023-04-02T13:57:56.242Z,0.53
2023-04-02T14:01:56.280Z,0.55
2023-04-02T14:05:56.350Z,0.55
2023-04-02T14:09:56.723Z,0.55
2023-04-02T14:13:56.582Z,0.57
2023-04-02T14:17:56.729Z,0.55
2023-04-02T14:21:56.793Z,0.57
2023-04-02T14:25:56.920Z,0.58
2023-04-02T14:29:57.233Z,0.58
2023-04-02T14:33:57.126Z,0.57
2023-04-02T14:37:57.700Z,0.56
2023-04-02T14:41:57.344Z,0.56
2023-04-02T14:45:57.483Z,0.55
2023-04-02T14:49:57.757Z,0.55
2023-04-02T14:53:57.695Z,0.56
2023-04-02T14:57:58.256Z,0.57
2023-04-02T15:01:57.986Z,0.52
2023-04-02T15:05:58.087Z,0.54
2023-04-02T15:09:58.236Z,0.54
2023-04-02T15:13:58.744Z,0.54
2023-04-02T15:17:58.819Z,0.53
2023-04-02T15:22:00.973Z,0.55
2023-04-02T15:25:58.734Z,0.55
2023-04-02T15:29:58.853Z,0.55
2023-04-02T15:33:58.481Z,0.56
2023-04-02T15:37:58.462Z,0.56
2023-04-02T15:41:58.423Z,0.54
2023-04-02T15:45:58.793Z,0.55
2023-04-02T15:49:58.296Z,0.54
2023-04-02T15:53:58.739Z,0.57
2023-04-02T15:57:58.393Z,0.55
2023-04-02T16:01:58.522Z,0.54
2023-04-02T16:05:58.663Z,0.53
2023-04-02T16:09:58.828Z,0.56
2023-04-02T16:13:58.958Z,0.56
2023-04-02T16:17:59.128Z,0.55
2023-04-02T16:21:59.281Z,0.55
2023-04-02T16:25:59.793Z,0.55
2023-04-02T16:29:59.526Z,0.58
2023-04-02T16:34:00.279Z,0.56
2023-04-02T16:37:59.839Z,0.54
2023-04-02T16:41:59.954Z,0.54
2023-04-02T16:46:00.294Z,0.56
2023-04-02T16:50:00.266Z,0.56
2023-04-02T16:54:02.529Z,0.54
2023-04-02T16:58:00.517Z,0.56
2023-04-02T17:02:00.731Z,0.57
2023-04-02T17:06:01.271Z,0.55
2023-04-02T17:10:00.994Z,0.56
2023-04-02T17:14:01.163Z,0.56
2023-04-02T17:18:01.310Z,0.55
2023-04-02T17:22:01.806Z,0.55
2023-04-02T17:26:01.808Z,0.56
2023-04-02T17:30:01.683Z,0.54
2023-04-02T17:34:01.867Z,0.55
2023-04-02T17:38:02.290Z,0.56
2023-04-02T17:42:02.185Z,0.56
2023-04-02T17:46:02.876Z,0.56
2023-04-02T17:50:02.789Z,0.57
2023-04-02T17:54:02.582Z,0.57
2023-04-02T17:58:02.804Z,0.56
2023-04-02T18:02:02.852Z,0.57
2023-04-02T18:06:03.294Z,0.56
2023-04-02T18:10:03.141Z,0.56
2023-04-02T18:14:03.307Z,0.56
2023-04-02T18:18:03.853Z,0.57
2023-04-02T18:22:03.633Z,0.57
2023-04-02T18:26:03.776Z,0.58
2023-04-02T18:30:03.953Z,0.58
2023-04-02T18:34:04.073Z,0.57
2023-04-02T18:38:04.296Z,0.57
2023-04-02T18:42:04.416Z,0.58
2023-04-02T18:46:04.818Z,0.59
2023-04-02T18:50:04.753Z,0.58
2023-04-02T18:54:05.336Z,0.60
2023-04-02T18:58:05.315Z,0.58
2023-04-02T19:02:05.365Z,0.58
2023-04-02T19:06:05.806Z,0.60
2023-04-02T19:10:05.634Z,0.60
2023-04-02T19:14:06.327Z,0.59
2023-04-02T19:18:06.333Z,0.59
2023-04-02T19:22:06.358Z,0.60
2023-04-02T19:26:06.863Z,0.59
2023-04-02T19:30:06.589Z,0.61
2023-04-02T19:34:06.806Z,0.60
2023-04-02T19:38:06.984Z,0.61
2023-04-02T19:42:07.316Z,0.61
2023-04-02T19:46:07.846Z,0.62
2023-04-02T19:50:07.498Z,0.62
2023-04-02T19:54:07.693Z,0.61
2023-04-02T19:58:18.791Z,0.62
2023-04-02T20:02:08.993Z,0.62
2023-04-02T20:06:08.175Z,0.61
2023-04-02T20:10:08.393Z,0.63
2023-04-02T20:14:08.589Z,0.61
2023-04-02T20:18:08.858Z,0.62
2023-04-02T20:22:09.329Z,0.61
2023-04-02T20:26:09.369Z,0.62
2023-04-02T20:30:09.426Z,0.63
2023-04-02T20:34:09.991Z,0.63
2023-04-02T20:38:09.820Z,0.63
2023-04-02T20:42:10.371Z,0.62
2023-04-02T20:46:12.178Z,0.62
2023-04-02T20:50:10.483Z,0.63
2023-04-02T20:54:10.863Z,0.64
2023-04-02T20:58:10.848Z,0.63
2023-04-02T21:02:11.009Z,0.63
2023-04-02T21:06:11.225Z,0.63
2023-04-02T21:10:11.875Z,0.64
2023-04-02T21:14:11.641Z,0.62
2023-04-02T21:18:11.869Z,0.63
2023-04-02T21:22:12.357Z,0.63
2023-04-02T21:26:12.195Z,0.64
2023-04-02T21:30:12.361Z,0.66
2023-04-02T21:34:12.874Z,0.62
2023-04-02T21:38:12.790Z,0.64
2023-04-02T21:42:13.368Z,0.63
2023-04-02T21:46:13.139Z,0.66
2023-04-02T21:50:13.309Z,0.64
2023-04-02T21:54:13.852Z,0.63
2023-04-02T21:58:13.644Z,0.62
2023-04-02T22:02:13.810Z,0.64
2023-04-02T22:06:13.963Z,0.63
2023-04-02T22:10:14.179Z,0.65
2023-04-02T22:14:14.403Z,0.68
2023-04-02T22:18:14.882Z,0.66
2023-04-02T22:22:14.873Z,0.64
2023-04-02T22:26:14.907Z,0.63
2023-04-02T22:30:15.099Z,0.65
2023-04-02T22:34:15.414Z,0.67
2023-04-02T22:38:15.485Z,0.63
2023-04-02T22:42:15.910Z,0.63
2023-04-02T22:46:15.930Z,0.67
2023-04-02T22:50:16.389Z,0.66
2023-04-02T22:54:16.289Z,0.65
2023-04-02T22:58:16.893Z,0.65
2023-04-02T23:02:16.685Z,0.65
2023-04-02T23:06:16.880Z,0.65
2023-04-02T23:10:17.042Z,0.67
2023-04-02T23:14:17.413Z,0.66
2023-04-02T23:18:17.452Z,0.68
2023-04-02T23:22:17.676Z,0.66
2023-04-02T23:26:17.878Z,0.66
2023-04-02T23:30:18.040Z,0.65
2023-04-02T23:34:18.416Z,0.64
2023-04-02T23:38:18.935Z,0.68
2023-04-02T23:42:18.607Z,0.65
2023-04-02T23:46:18.970Z,0.65
2023-04-02T23:50:19.409Z,0.64
2023-04-02T23:54:19.196Z,0.63
2023-04-02T23:58:19.923Z,0.63
